Time;durP1;ratioP1;P1;durP2;ratioP2;P2;SDS_P1;SDS_P2;PMS_P1;PMS_P2;Temp;Humidity;BMP_temperature;BMP_pressure;BME280_temperature;BME280_humidity;BME280_pressure;Samples;Min_cycle;Max_cycle;Signal;HPM_P1;HPM_P2
2023/04/24 00:01:29;;;;;;;0.63;0.60;;;18.50;81.20;;;;;;4965511;28;20093;-90
2023/04/24 00:03:55;;;;;;;1.15;0.80;;;18.50;81.10;;;;;;4961881;28;20125;-89
2023/04/24 00:06:23;;;;;;;0.68;0.68;;;18.50;81.10;;;;;;4968154;28;20488;-90
2023/04/24 00:08:49;;;;;;;1.15;0.75;;;18.50;81.10;;;;;;4970160;28;20611;-90
2023/04/24 00:11:14;;;;;;;0.63;0.40;;;18.50;81.10;;;;;;4969969;28;20137;-89
2023/04/24 00:13:40;;;;;;;0.50;0.50;;;18.50;81.00;;;;;;4966638;28;20536;-90
2023/04/24 00:16:05;;;;;;;0.65;0.65;;;18.40;81.00;;;;;;4955495;28;20591;-90
2023/04/24 00:18:31;;;;;;;0.70;0.70;;;18.40;81.00;;;;;;4988985;28;20524;-90
2023/04/24 00:20:56;;;;;;;0.52;0.52;;;18.50;81.10;;;;;;4971414;28;20125;-90
2023/04/24 00:23:22;;;;;;;0.60;0.50;;;18.40;81.00;;;;;;4987475;28;20043;-90
2023/04/24 00:25:47;;;;;;;0.60;0.60;;;18.40;81.00;;;;;;4971113;28;20530;-90
2023/04/24 00:28:13;;;;;;;0.90;0.80;;;18.40;81.10;;;;;;4957258;28;20050;-89
2023/04/24 00:30:39;;;;;;;0.40;0.40;;;18.40;80.90;;;;;;4957197;28;20050;-89
2023/04/24 00:33:05;;;;;;;0.68;0.68;;;18.40;80.90;;;;;;4973259;28;20042;-90
2023/04/24 00:35:30;;;;;;;0.40;0.40;;;18.40;81.00;;;;;;4956334;28;20052;-89
2023/04/24 00:37:56;;;;;;;0.73;0.68;;;18.40;80.90;;;;;;4989890;28;20420;-90
2023/04/24 00:40:22;;;;;;;0.60;0.60;;;18.40;80.90;;;;;;4988237;28;20046;-90
2023/04/24 00:42:47;;;;;;;0.60;0.60;;;18.40;80.90;;;;;;4957076;28;20096;-90
2023/04/24 00:45:13;;;;;;;0.80;0.80;;;18.40;80.90;;;;;;4981019;28;20065;-89
2023/04/24 00:47:38;;;;;;;0.80;0.80;;;18.40;81.70;;;;;;5023074;28;20108;-87
2023/04/24 00:50:05;;;;;;;0.90;0.80;;;18.40;81.00;;;;;;4971816;28;20089;-89
2023/04/24 00:52:32;;;;;;;0.43;0.43;;;18.40;81.00;;;;;;5002539;28;20042;-88
2023/04/24 00:54:58;;;;;;;0.55;0.55;;;18.40;81.70;;;;;;5007660;28;20554;-89
2023/04/24 00:57:24;;;;;;;1.05;0.70;;;18.40;81.00;;;;;;5009871;28;20170;-89
2023/04/24 00:59:50;;;;;;;0.50;0.50;;;18.40;80.90;;;;;;5007619;28;20486;-88
2023/04/24 01:02:16;;;;;;;0.50;0.50;;;18.40;80.90;;;;;;4993417;28;20141;-87
2023/04/24 01:04:41;;;;;;;0.60;0.60;;;18.40;80.80;;;;;;5004697;28;20192;-88
2023/04/24 01:07:10;;;;;;;0.60;0.52;;;18.40;80.90;;;;;;4972562;28;20042;-88
2023/04/24 01:09:37;;;;;;;0.50;0.50;;;18.40;80.90;;;;;;4975740;28;20077;-87
2023/04/24 01:12:02;;;;;;;0.60;0.60;;;18.40;80.80;;;;;;4990878;28;20045;-88
2023/04/24 01:14:28;;;;;;;0.65;0.65;;;18.40;81.00;;;;;;5003111;28;20035;-88
2023/04/24 01:16:53;;;;;;;0.60;0.60;;;18.40;81.00;;;;;;4987127;28;20050;-89
2023/04/24 01:19:19;;;;;;;0.82;0.63;;;18.40;80.90;;;;;;5017473;28;20145;-88
2023/04/24 01:21:44;;;;;;;0.50;0.50;;;18.40;80.80;;;;;;4989220;28;20049;-88
2023/04/24 01:24:10;;;;;;;0.60;0.60;;;18.30;80.70;;;;;;4979255;28;20561;-89
2023/04/24 01:26:36;;;;;;;0.52;0.52;;;18.40;80.70;;;;;;4963689;28;20046;-89
2023/04/24 01:29:01;;;;;;;0.50;0.50;;;18.30;80.80;;;;;;5006351;28;20515;-89
2023/04/24 01:31:27;;;;;;;0.80;0.80;;;18.40;80.80;;;;;;4960782;28;20570;-90
2023/04/24 01:33:52;;;;;;;0.65;0.65;;;18.40;80.80;;;;;;4973762;28;20046;-90
2023/04/24 01:36:18;;;;;;;0.90;0.90;;;18.30;80.70;;;;;;4973553;28;20651;-90
2023/04/24 01:38:44;;;;;;;0.80;0.52;;;18.30;80.70;;;;;;4991047;28;20434;-90
2023/04/24 01:41:10;;;;;;;0.50;0.50;;;18.40;81.60;;;;;;4991272;28;20087;-90
2023/04/24 01:43:35;;;;;;;0.80;0.60;;;18.30;80.60;;;;;;4973643;28;20040;-90
2023/04/24 01:46:01;;;;;;;0.70;0.70;;;18.30;80.60;;;;;;4986073;28;20046;-91
2023/04/24 01:48:26;;;;;;;0.50;0.50;;;18.30;80.70;;;;;;4972956;28;20053;-90
2023/04/24 01:50:52;;;;;;;0.65;0.65;;;18.30;80.70;;;;;;4970290;28;20046;-90
2023/04/24 01:53:18;;;;;;;0.70;0.70;;;18.30;80.50;;;;;;4988687;28;20122;-89
2023/04/24 01:55:43;;;;;;;0.43;0.43;;;18.30;80.60;;;;;;4969514;28;20050;-90
2023/04/24 01:58:09;;;;;;;0.88;0.80;;;18.30;80.60;;;;;;4954565;28;20415;-90
2023/04/24 02:00:34;;;;;;;0.80;0.68;;;18.30;80.70;;;;;;4951948;28;20125;-90
2023/04/24 02:03:01;;;;;;;0.57;0.57;;;18.30;80.70;;;;;;4988168;28;20439;-90
2023/04/24 02:05:27;;;;;;;1.40;1.25;;;18.30;80.70;;;;;;4956329;28;20034;-90
2023/04/24 02:07:53;;;;;;;0.50;0.50;;;18.30;80.60;;;;;;4970818;28;20053;-90
2023/04/24 02:10:18;;;;;;;0.70;0.70;;;18.30;80.60;;;;;;4992213;28;20042;-90
2023/04/24 02:12:44;;;;;;;1.20;0.80;;;18.30;80.60;;;;;;4950555;28;20492;-88
2023/04/24 02:15:10;;;;;;;0.73;0.73;;;18.30;80.50;;;;;;4977482;28;20046;-90
2023/04/24 02:17:36;;;;;;;0.60;0.60;;;18.30;80.50;;;;;;4985411;28;20469;-90
2023/04/24 02:20:02;;;;;;;0.60;0.60;;;18.30;80.50;;;;;;4958173;28;20062;-90
2023/04/24 02:22:27;;;;;;;0.70;0.70;;;18.30;80.50;;;;;;4996480;28;20118;-89
2023/04/24 02:24:53;;;;;;;0.50;0.50;;;18.30;80.50;;;;;;4996088;28;20081;-90
2023/04/24 02:27:18;;;;;;;1.45;0.60;;;18.30;80.50;;;;;;4985796;28;20053;-90
2023/04/24 02:29:44;;;;;;;0.60;0.60;;;18.30;80.50;;;;;;4961929;28;20039;-90
2023/04/24 02:32:11;;;;;;;0.98;0.90;;;18.30;80.40;;;;;;4955562;28;20416;-89
2023/04/24 02:34:37;;;;;;;0.50;0.50;;;18.30;80.50;;;;;;4955285;28;20074;-89
2023/04/24 02:37:03;;;;;;;0.50;0.50;;;18.30;80.50;;;;;;4966761;28;20494;-90
2023/04/24 02:39:29;;;;;;;0.65;0.65;;;18.30;80.50;;;;;;4988152;28;20120;-89
2023/04/24 02:41:54;;;;;;;0.47;0.47;;;18.30;80.50;;;;;;4955165;28;20128;-89
2023/04/24 02:44:21;;;;;;;1.10;0.47;;;18.30;80.50;;;;;;4991389;28;20077;-89
2023/04/24 02:46:47;;;;;;;0.77;0.77;;;18.20;80.60;;;;;;4989867;28;20527;-89
2023/04/24 02:49:12;;;;;;;0.60;0.60;;;18.20;80.50;;;;;;4999956;28;20053;-89
2023/04/24 02:51:40;;;;;;;0.63;0.63;;;18.30;80.60;;;;;;4988861;28;20531;-89
2023/04/24 02:54:09;;;;;;;0.60;0.60;;;18.30;81.30;;;;;;4987780;28;20566;-90
2023/04/24 02:56:35;;;;;;;1.13;0.60;;;18.20;80.50;;;;;;4994542;28;20515;-90
2023/04/24 02:59:01;;;;;;;0.55;0.55;;;18.30;80.60;;;;;;4986632;28;20047;-90
2023/04/24 03:01:26;;;;;;;0.52;0.52;;;18.20;80.40;;;;;;4998184;28;20039;-89
2023/04/24 03:03:52;;;;;;;1.58;1.15;;;18.20;80.50;;;;;;4985296;28;20038;-89
2023/04/24 03:06:17;;;;;;;0.77;0.77;;;18.30;80.50;;;;;;4985945;28;20079;-90
2023/04/24 03:08:43;;;;;;;0.60;0.60;;;18.20;81.30;;;;;;4988863;28;20129;-90
2023/04/24 03:11:08;;;;;;;0.63;0.63;;;18.20;80.50;;;;;;4985911;28;20531;-89
2023/04/24 03:13:34;;;;;;;0.60;0.60;;;18.20;80.50;;;;;;4984204;28;20132;-90
2023/04/24 03:16:00;;;;;;;0.50;0.50;;;18.20;80.50;;;;;;5002247;28;20041;-90
2023/04/24 03:18:25;;;;;;;0.55;0.55;;;18.20;80.50;;;;;;5005563;28;20097;-89
2023/04/24 03:20:51;;;;;;;0.50;0.50;;;18.20;80.60;;;;;;4992757;28;20106;-89
2023/04/24 03:23:16;;;;;;;0.60;0.60;;;18.20;80.50;;;;;;5010770;28;20109;-90
2023/04/24 03:25:42;;;;;;;0.70;0.70;;;18.20;80.50;;;;;;4996152;28;20081;-90
2023/04/24 03:28:08;;;;;;;0.70;0.70;;;18.20;80.40;;;;;;4996120;28;20050;-90
2023/04/24 03:30:34;;;;;;;0.57;0.57;;;18.20;80.40;;;;;;4999026;28;20069;-90
2023/04/24 03:33:00;;;;;;;0.60;0.60;;;18.20;80.50;;;;;;5004525;28;20129;-90
2023/04/24 03:35:25;;;;;;;0.60;0.60;;;18.20;80.50;;;;;;4998506;28;20047;-90
2023/04/24 03:37:51;;;;;;;0.63;0.63;;;18.20;80.40;;;;;;4991627;28;20038;-89
2023/04/24 03:40:17;;;;;;;0.47;0.40;;;18.20;80.40;;;;;;5014071;28;20077;-90
2023/04/24 03:42:42;;;;;;;0.65;0.63;;;18.20;80.50;;;;;;5007253;28;20042;-90
2023/04/24 03:45:08;;;;;;;0.60;0.60;;;18.20;80.60;;;;;;5022565;28;20046;-90
2023/04/24 03:47:34;;;;;;;0.60;0.60;;;18.20;80.40;;;;;;5019809;28;20112;-90
2023/04/24 03:50:00;;;;;;;0.77;0.77;;;18.20;80.50;;;;;;5005302;28;20046;-90
2023/04/24 03:52:25;;;;;;;0.50;0.50;;;18.20;80.40;;;;;;5014233;28;20113;-90
2023/04/24 03:54:51;;;;;;;0.60;0.57;;;18.20;80.50;;;;;;5009493;28;20046;-89
2023/04/24 03:57:16;;;;;;;0.40;0.40;;;18.20;80.50;;;;;;4993736;28;20046;-91
2023/04/24 03:59:42;;;;;;;0.60;0.50;;;18.20;81.30;;;;;;4977964;28;20053;-90
2023/04/24 04:02:07;;;;;;;0.30;0.30;;;18.20;80.50;;;;;;4989843;28;20211;-90
2023/04/24 04:04:33;;;;;;;0.50;0.50;;;18.20;80.40;;;;;;4991569;28;20192;-90
2023/04/24 04:07:01;;;;;;;0.50;0.50;;;18.20;80.40;;;;;;4982152;28;20037;-90
2023/04/24 04:09:26;;;;;;;0.82;0.47;;;18.20;80.40;;;;;;4998997;28;20426;-89
2023/04/24 04:11:52;;;;;;;1.40;0.70;;;18.20;80.30;;;;;;4990625;28;20500;-90
2023/04/24 04:14:18;;;;;;;0.40;0.40;;;18.20;80.40;;;;;;5023262;28;20084;-89
2023/04/24 04:16:43;;;;;;;0.43;0.40;;;18.20;80.40;;;;;;5001262;28;20053;-89
2023/04/24 04:19:09;;;;;;;0.40;0.40;;;18.20;80.50;;;;;;4970200;28;20495;-90
2023/04/24 04:21:34;;;;;;;0.70;0.70;;;18.20;80.60;;;;;;5009645;28;20061;-90
2023/04/24 04:24:00;;;;;;;0.50;0.50;;;18.10;80.40;;;;;;4974822;28;20125;-89
2023/04/24 04:26:25;;;;;;;0.40;0.40;;;18.20;80.50;;;;;;4992034;28;20496;-89
2023/04/24 04:28:54;;;;;;;0.45;0.40;;;18.20;80.50;;;;;;5008560;28;20042;-89
2023/04/24 04:31:20;;;;;;;0.55;0.55;;;18.10;80.40;;;;;;4991485;28;20515;-89
2023/04/24 04:33:46;;;;;;;0.40;0.40;;;18.10;80.40;;;;;;5008794;28;20097;-89
2023/04/24 04:36:12;;;;;;;0.77;0.50;;;18.20;80.40;;;;;;4992740;28;20415;-89
2023/04/24 04:38:37;;;;;;;0.50;0.50;;;18.10;80.30;;;;;;4974799;28;20046;-89
2023/04/24 04:41:03;;;;;;;0.68;0.68;;;18.20;81.20;;;;;;5009567;28;20092;-89
2023/04/24 04:43:30;;;;;;;0.43;0.40;;;18.10;80.30;;;;;;5006114;28;20100;-88
2023/04/24 04:45:57;;;;;;;0.60;0.60;;;18.10;80.40;;;;;;5008343;28;20088;-89
2023/04/24 04:48:22;;;;;;;0.40;0.40;;;18.10;80.40;;;;;;5006826;28;20046;-89
2023/04/24 04:50:48;;;;;;;0.40;0.40;;;18.10;80.30;;;;;;5009725;28;20049;-85
2023/04/24 04:53:13;;;;;;;0.40;0.38;;;18.10;80.30;;;;;;4992122;28;20124;-89
2023/04/24 04:55:39;;;;;;;0.40;0.40;;;18.10;80.30;;;;;;4990126;28;20699;-89
2023/04/24 04:58:05;;;;;;;0.57;0.55;;;18.10;80.30;;;;;;5006744;28;20129;-89
2023/04/24 05:00:35;;;;;;;1.50;0.93;;;18.10;80.40;;;;;;5008561;28;20499;-89
2023/04/24 05:03:01;;;;;;;0.50;0.50;;;18.10;80.30;;;;;;4968485;28;20171;-89
2023/04/24 05:05:26;;;;;;;0.52;0.50;;;18.10;80.30;;;;;;4986335;28;20217;-89
2023/04/24 05:07:52;;;;;;;0.50;0.50;;;18.20;81.20;;;;;;4988659;28;20074;-88
2023/04/24 05:10:18;;;;;;;0.57;0.57;;;18.10;80.40;;;;;;4986838;28;20504;-89
2023/04/24 05:12:43;;;;;;;0.57;0.57;;;18.10;80.30;;;;;;5004484;28;20245;-89
2023/04/24 05:15:09;;;;;;;0.50;0.50;;;18.10;80.40;;;;;;4969833;28;20047;-90
2023/04/24 05:17:35;;;;;;;0.55;0.55;;;18.10;80.30;;;;;;4988028;28;20526;-88
2023/04/24 05:20:01;;;;;;;0.40;0.40;;;18.10;80.40;;;;;;4971386;28;20066;-89
2023/04/24 05:22:26;;;;;;;0.63;0.63;;;18.20;80.10;;;;;;5002408;28;20503;-92
2023/04/24 05:24:53;;;;;;;0.68;0.68;;;18.20;80.00;;;;;;4986426;28;20428;-88
2023/04/24 05:27:18;;;;;;;0.45;0.45;;;18.20;80.20;;;;;;4986122;28;20073;-88
2023/04/24 05:29:44;;;;;;;0.32;0.32;;;18.10;80.20;;;;;;4970873;28;20590;-90
2023/04/24 05:32:10;;;;;;;1.73;0.80;;;18.10;80.40;;;;;;4990188;28;20034;-90
2023/04/24 05:34:36;;;;;;;0.40;0.40;;;18.10;80.30;;;;;;5000129;28;20042;-90
2023/04/24 05:37:01;;;;;;;0.40;0.40;;;18.10;80.30;;;;;;4985358;28;20062;-89
2023/04/24 05:39:27;;;;;;;0.50;0.50;;;18.10;80.30;;;;;;4988174;28;20046;-90
2023/04/24 05:41:52;;;;;;;0.50;0.50;;;18.10;80.30;;;;;;4986782;28;20039;-88
2023/04/24 05:44:18;;;;;;;0.47;0.35;;;18.10;80.30;;;;;;4999121;28;20243;-89
2023/04/24 05:46:44;;;;;;;0.45;0.45;;;18.10;80.30;;;;;;4986006;28;20464;-90
2023/04/24 05:49:09;;;;;;;0.60;0.60;;;18.10;80.30;;;;;;4987354;28;20077;-89
2023/04/24 05:51:35;;;;;;;0.50;0.50;;;18.10;80.20;;;;;;4986667;28;20537;-89
2023/04/24 05:54:01;;;;;;;0.60;0.60;;;18.10;80.20;;;;;;5003161;28;20154;-88
2023/04/24 05:56:27;;;;;;;0.60;0.60;;;18.10;80.20;;;;;;4986111;28;20043;-88
2023/04/24 05:58:52;;;;;;;0.40;0.40;;;18.10;80.20;;;;;;4985422;28;20049;-88
2023/04/24 06:01:19;;;;;;;0.50;0.50;;;18.10;80.00;;;;;;5001668;28;20047;-88
2023/04/24 06:03:45;;;;;;;0.77;0.65;;;18.10;80.10;;;;;;5002861;28;20121;-89
2023/04/24 06:06:10;;;;;;;0.50;0.50;;;18.10;80.10;;;;;;4983911;28;20114;-88
2023/04/24 06:08:36;;;;;;;0.40;0.40;;;18.10;80.00;;;;;;4999411;28;20042;-88
2023/04/24 06:11:01;;;;;;;0.57;0.57;;;18.10;80.00;;;;;;4987295;28;20049;-88
2023/04/24 06:13:27;;;;;;;0.60;0.60;;;18.10;80.10;;;;;;5017864;28;20551;-89
2023/04/24 06:15:53;;;;;;;0.40;0.40;;;18.10;80.10;;;;;;4987535;28;20053;-89
2023/04/24 06:18:18;;;;;;;0.50;0.50;;;18.10;80.00;;;;;;4987207;28;20512;-89
2023/04/24 06:20:45;;;;;;;0.35;0.35;;;18.10;80.80;;;;;;4953294;28;20066;-89
2023/04/24 06:23:11;;;;;;;0.73;0.38;;;18.10;80.00;;;;;;5000817;28;20313;-89
2023/04/24 06:25:37;;;;;;;0.50;0.50;;;18.10;80.00;;;;;;4997351;28;20042;-88
2023/04/24 06:28:03;;;;;;;0.40;0.40;;;18.10;80.00;;;;;;4985673;28;20377;-91
2023/04/24 06:30:28;;;;;;;0.40;0.40;;;18.10;80.00;;;;;;4987402;28;20087;-87
2023/04/24 06:32:54;;;;;;;0.50;0.50;;;18.10;80.00;;;;;;4987210;28;20035;-83
2023/04/24 06:35:19;;;;;;;1.75;0.40;;;18.20;80.20;;;;;;4986354;28;20093;-85
2023/04/24 06:37:46;;;;;;;0.52;0.52;;;18.30;80.00;;;;;;4987890;28;20044;-85
2023/04/24 06:40:11;;;;;;;1.45;0.32;;;18.20;80.00;;;;;;4985377;28;20506;-88
2023/04/24 06:42:37;;;;;;;1.88;0.55;;;18.20;80.00;;;;;;4985921;28;20034;-85
2023/04/24 06:45:03;;;;;;;1.58;0.60;;;18.20;80.30;;;;;;4986175;28;20037;-85
2023/04/24 06:47:29;;;;;;;0.60;0.60;;;18.20;80.50;;;;;;4987263;28;20046;-83
2023/04/24 06:49:55;;;;;;;1.25;0.70;;;18.30;81.90;;;;;;4988949;28;20062;-84
2023/04/24 06:52:20;;;;;;;0.65;0.65;;;18.30;81.20;;;;;;4986337;28;20554;-85
2023/04/24 06:54:46;;;;;;;0.70;0.70;;;18.30;81.10;;;;;;4986652;28;20045;-83
2023/04/24 06:57:11;;;;;;;2.85;1.23;;;18.30;81.40;;;;;;4986192;28;20062;-83
2023/04/24 06:59:37;;;;;;;2.17;0.95;;;18.30;81.90;;;;;;4986905;28;20125;-85
2023/04/24 07:02:03;;;;;;;1.25;0.70;;;18.30;81.70;;;;;;4983978;28;20105;-83
2023/04/24 07:04:29;;;;;;;0.90;0.90;;;18.30;82.50;;;;;;5000328;28;20064;-84
2023/04/24 07:06:55;;;;;;;1.58;1.00;;;18.30;82.40;;;;;;5006532;28;20507;-82
2023/04/24 07:09:21;;;;;;;1.52;1.05;;;18.30;82.80;;;;;;5004717;28;20140;-86
2023/04/24 07:11:48;;;;;;;1.70;1.00;;;18.30;83.50;;;;;;4973534;28;20068;-85
2023/04/24 07:14:13;;;;;;;4.30;1.00;;;18.30;83.00;;;;;;5002481;28;20407;-83
2023/04/24 07:16:39;;;;;;;2.42;1.00;;;18.30;82.50;;;;;;5006458;28;20553;-83
2023/04/24 07:19:04;;;;;;;4.57;0.90;;;18.40;82.40;;;;;;5003092;28;20081;-85
2023/04/24 07:21:31;;;;;;;3.58;1.13;;;18.40;82.20;;;;;;5005068;28;20568;-84
2023/04/24 07:23:57;;;;;;;2.00;1.40;;;18.40;82.20;;;;;;5005497;28;20121;-86
2023/04/24 07:26:23;;;;;;;1.65;1.30;;;18.40;81.90;;;;;;4992899;28;20038;-87
2023/04/24 07:28:48;;;;;;;2.88;1.13;;;18.50;82.30;;;;;;4984708;28;20061;-85
2023/04/24 07:31:14;;;;;;;1.35;0.82;;;18.50;82.30;;;;;;4978613;28;20324;-84
2023/04/24 07:33:39;;;;;;;1.95;0.80;;;18.50;82.60;;;;;;4983029;28;20050;-86
2023/04/24 07:36:06;;;;;;;0.80;0.80;;;18.50;82.80;;;;;;4991212;28;20086;-81
2023/04/24 07:38:31;;;;;;;2.35;0.88;;;18.50;82.60;;;;;;4982379;28;20097;-86
2023/04/24 07:40:57;;;;;;;2.28;1.10;;;18.60;83.40;;;;;;4965982;28;20042;-85
2023/04/24 07:43:23;;;;;;;1.25;0.80;;;18.50;83.20;;;;;;4982990;28;20046;-85
2023/04/24 07:45:49;;;;;;;1.27;0.93;;;18.50;83.10;;;;;;4986698;28;20054;-84
2023/04/24 07:48:16;;;;;;;1.38;1.10;;;18.50;83.10;;;;;;4981175;28;20077;-85
2023/04/24 07:50:42;;;;;;;1.77;0.57;;;18.50;83.10;;;;;;4983968;28;20046;-84
2023/04/24 07:53:07;;;;;;;2.72;0.90;;;18.60;83.10;;;;;;4984936;28;20038;-83
2023/04/24 07:55:33;;;;;;;2.00;1.00;;;18.50;81.30;;;;;;4983139;28;20047;-85
2023/04/24 07:57:58;;;;;;;4.35;1.35;;;18.40;76.90;;;;;;4987314;28;20508;-86
2023/04/24 08:00:24;;;;;;;3.08;1.10;;;18.10;75.30;;;;;;5001782;28;20046;-85
2023/04/24 08:02:49;;;;;;;5.07;1.05;;;18.00;74.30;;;;;;5004168;28;20574;-85
2023/04/24 08:05:15;;;;;;;1.35;1.15;;;17.90;74.90;;;;;;5003771;28;20038;-87
2023/04/24 08:07:42;;;;;;;0.68;0.68;;;17.90;75.10;;;;;;5002544;28;20049;-86
2023/04/24 08:10:10;;;;;;;2.13;0.93;;;17.90;75.10;;;;;;5001269;28;20054;-87
2023/04/24 08:12:36;;;;;;;0.80;0.70;;;18.10;75.70;;;;;;5004786;28;20052;-87
2023/04/24 08:15:02;;;;;;;1.90;0.80;;;18.20;76.40;;;;;;5004048;28;20176;-87
2023/04/24 08:17:27;;;;;;;2.00;0.88;;;18.30;77.00;;;;;;5008126;28;20567;-87
2023/04/24 08:19:58;;;;;;;1.48;1.38;;;18.40;77.50;;;;;;5005682;28;20050;-87
2023/04/24 08:22:25;;;;;;;0.85;0.70;;;18.40;77.70;;;;;;5004925;28;20124;-87
2023/04/24 08:24:51;;;;;;;1.42;0.80;;;18.40;78.30;;;;;;5003315;28;20506;-87
2023/04/24 08:27:17;;;;;;;2.20;0.90;;;18.40;79.00;;;;;;4988180;28;20048;-87
2023/04/24 08:29:42;;;;;;;0.68;0.65;;;18.50;79.00;;;;;;5006100;28;20042;-87
2023/04/24 08:32:08;;;;;;;1.35;0.80;;;18.50;79.00;;;;;;4967162;28;20053;-87
2023/04/24 08:34:33;;;;;;;1.90;1.00;;;18.50;78.80;;;;;;5004081;28;20511;-87
2023/04/24 08:36:59;;;;;;;1.42;0.73;;;18.50;78.60;;;;;;4989855;28;20407;-87
2023/04/24 08:39:24;;;;;;;1.40;0.80;;;18.60;78.60;;;;;;4987158;28;20049;-87
2023/04/24 08:41:50;;;;;;;0.68;0.63;;;18.60;78.80;;;;;;4974105;28;20038;-88
2023/04/24 08:44:16;;;;;;;1.30;0.70;;;18.60;79.10;;;;;;4987283;28;20471;-87
2023/04/24 08:46:44;;;;;;;0.75;0.60;;;18.60;79.30;;;;;;4972654;28;20128;-87
2023/04/24 08:49:11;;;;;;;0.95;0.80;;;18.70;79.30;;;;;;4987706;28;20065;-86
2023/04/24 08:51:37;;;;;;;1.38;0.80;;;18.70;79.40;;;;;;4972598;28;20058;-87
2023/04/24 08:54:03;;;;;;;1.35;0.70;;;18.70;79.40;;;;;;4990029;28;20042;-86
2023/04/24 08:56:30;;;;;;;3.80;1.00;;;18.70;79.60;;;;;;4951982;28;20085;-87
2023/04/24 08:58:56;;;;;;;1.05;0.73;;;18.70;79.60;;;;;;4989842;28;20038;-86
2023/04/24 09:01:21;;;;;;;1.20;0.75;;;18.70;79.40;;;;;;4988161;28;20038;-87
2023/04/24 09:03:50;;;;;;;1.08;0.70;;;18.70;79.60;;;;;;4971212;28;20034;-87
2023/04/24 09:06:17;;;;;;;0.55;0.55;;;18.70;80.30;;;;;;4984595;28;20506;-86
2023/04/24 09:08:43;;;;;;;0.90;0.80;;;18.70;79.40;;;;;;4951823;28;20138;-87
2023/04/24 09:11:08;;;;;;;0.85;0.65;;;18.70;79.50;;;;;;4955821;28;20057;-87
2023/04/24 09:13:34;;;;;;;1.00;0.80;;;18.70;79.50;;;;;;5006101;28;20152;-87
2023/04/24 09:16:00;;;;;;;1.27;0.80;;;18.80;79.50;;;;;;4968689;28;20047;-87
2023/04/24 09:18:26;;;;;;;0.60;0.60;;;18.80;79.40;;;;;;4996849;28;20050;-87
2023/04/24 09:21:06;;;;;;;0.73;0.60;;;18.80;80.10;;;;;;4987892;28;20152;-87
2023/04/24 09:23:32;;;;;;;0.82;0.60;;;18.80;79.20;;;;;;4986458;28;20049;-88
2023/04/24 09:25:59;;;;;;;0.40;0.40;;;18.80;79.10;;;;;;4987705;28;20113;-87
2023/04/24 09:28:30;;;;;;;0.80;0.75;;;18.80;79.10;;;;;;4983460;28;20065;-87
2023/04/24 09:31:07;;;;;;;0.80;0.40;;;18.80;79.10;;;;;;4986953;28;20165;-87
2023/04/24 09:33:32;;;;;;;0.52;0.52;;;18.90;79.10;;;;;;4996552;28;20050;-87
2023/04/24 09:35:59;;;;;;;2.40;0.63;;;18.90;79.20;;;;;;5006394;28;20056;-87
2023/04/24 09:38:31;;;;;;;0.70;0.50;;;18.80;79.20;;;;;;5007970;28;20048;-88
2023/04/24 09:41:00;;;;;;;0.60;0.50;;;18.80;79.30;;;;;;5021714;28;20060;-87
2023/04/24 09:43:26;;;;;;;0.43;0.43;;;18.80;79.30;;;;;;5006706;28;20078;-87
2023/04/24 09:45:55;;;;;;;0.60;0.60;;;18.80;79.40;;;;;;5006925;28;20480;-87
2023/04/24 09:48:25;;;;;;;2.20;0.63;;;18.80;79.40;;;;;;4987437;28;20041;-87
2023/04/24 09:50:52;;;;;;;0.70;0.70;;;18.80;79.60;;;;;;4973675;28;20049;-88
2023/04/24 09:53:18;;;;;;;0.55;0.55;;;18.80;79.60;;;;;;5004915;28;20046;-88
2023/04/24 09:55:48;;;;;;;1.13;0.60;;;18.80;79.70;;;;;;4973108;28;20358;-88
2023/04/24 09:58:14;;;;;;;0.65;0.65;;;18.70;79.60;;;;;;5005864;28;20165;-87
2023/04/24 10:00:40;;;;;;;0.50;0.50;;;18.80;79.60;;;;;;5005592;28;20061;-88
2023/04/24 10:03:05;;;;;;;0.47;0.47;;;18.80;79.50;;;;;;4976310;28;20042;-88
2023/04/24 10:05:35;;;;;;;0.47;0.43;;;18.80;79.50;;;;;;5004832;28;20049;-87
2023/04/24 10:08:03;;;;;;;0.40;0.40;;;18.80;79.50;;;;;;5003214;28;20046;-87
2023/04/24 10:10:29;;;;;;;0.50;0.50;;;18.80;79.50;;;;;;4990725;28;20050;-87
2023/04/24 10:12:54;;;;;;;0.40;0.40;;;18.90;79.50;;;;;;5007116;28;20044;-87
2023/04/24 10:15:21;;;;;;;0.85;0.60;;;18.90;79.30;;;;;;4987950;28;20046;-87
2023/04/24 10:17:52;;;;;;;1.65;0.50;;;18.90;79.50;;;;;;4990955;28;20049;-87
2023/04/24 10:20:22;;;;;;;0.75;0.55;;;18.90;79.40;;;;;;5004253;28;20045;-87
2023/04/24 10:22:52;;;;;;;0.40;0.40;;;18.90;79.30;;;;;;4992121;28;20411;-88
2023/04/24 10:25:22;;;;;;;0.55;0.52;;;18.90;79.20;;;;;;5005005;28;20044;-87
2023/04/24 10:27:48;;;;;;;0.90;0.60;;;18.90;79.20;;;;;;5002800;28;20099;-88
2023/04/24 10:30:13;;;;;;;0.50;0.50;;;18.90;79.20;;;;;;5006558;28;20129;-87
2023/04/24 10:32:39;;;;;;;0.47;0.40;;;18.90;79.20;;;;;;5005784;28;20134;-88
2023/04/24 10:35:07;;;;;;;0.55;0.55;;;18.90;79.20;;;;;;4988295;28;20042;-88
2023/04/24 10:37:37;;;;;;;0.40;0.40;;;18.90;79.20;;;;;;5005496;28;20053;-88
2023/04/24 10:40:04;;;;;;;0.70;0.52;;;18.90;79.20;;;;;;4988844;28;20388;-88
2023/04/24 10:42:29;;;;;;;1.55;0.40;;;18.90;79.10;;;;;;4987529;28;20112;-87
2023/04/24 10:44:57;;;;;;;0.82;0.60;;;18.90;79.30;;;;;;5006222;28;20525;-87
2023/04/24 10:47:23;;;;;;;0.52;0.50;;;18.90;79.10;;;;;;4985625;28;20038;-87
2023/04/24 10:49:50;;;;;;;0.40;0.40;;;18.90;80.00;;;;;;4989429;28;20478;-88
2023/04/24 10:52:16;;;;;;;1.05;0.50;;;18.90;79.20;;;;;;4984310;28;20505;-87
2023/04/24 10:54:45;;;;;;;0.38;0.38;;;18.90;79.30;;;;;;4986858;28;20049;-87
2023/04/24 10:57:21;;;;;;;0.43;0.40;;;18.90;79.10;;;;;;4987147;28;20069;-86
2023/04/24 10:59:48;;;;;;;0.40;0.38;;;18.90;79.40;;;;;;4987998;28;20062;-88
2023/04/24 11:02:16;;;;;;;0.65;0.65;;;18.90;79.20;;;;;;4983669;28;20085;-87
2023/04/24 11:04:46;;;;;;;0.32;0.32;;;18.90;79.20;;;;;;4987495;28;20034;-77
2023/04/24 11:07:11;;;;;;;0.60;0.60;;;18.90;79.20;;;;;;4985731;28;20447;-77
2023/04/24 11:09:40;;;;;;;0.50;0.40;;;18.90;79.20;;;;;;4985315;28;20128;-77
2023/04/24 11:12:10;;;;;;;0.40;0.40;;;18.80;79.30;;;;;;4986248;28;20062;-77
2023/04/24 11:14:55;;;;;;;0.40;0.40;;;18.80;79.40;;;;;;5001101;28;20041;-77
2023/04/24 11:17:31;;;;;;;0.52;0.40;;;18.80;79.40;;;;;;5007092;28;20034;-76
2023/04/24 11:20:10;;;;;;;0.43;0.40;;;18.90;79.40;;;;;;5005136;28;21634;-77
2023/04/24 11:22:37;;;;;;;0.50;0.50;;;18.80;79.40;;;;;;4983967;28;20073;-77
2023/04/24 11:25:03;;;;;;;0.47;0.45;;;18.80;80.10;;;;;;4987101;28;20116;-77
2023/04/24 11:27:42;;;;;;;0.40;0.40;;;18.80;79.40;;;;;;4984704;28;20034;-77
2023/04/24 11:30:08;;;;;;;0.50;0.50;;;18.80;79.30;;;;;;4987085;28;20088;-77
2023/04/24 11:32:33;;;;;;;0.50;0.50;;;18.80;79.30;;;;;;4986362;28;20369;-76
2023/04/24 11:35:10;;;;;;;0.40;0.40;;;18.90;79.30;;;;;;4987035;28;20439;-76
2023/04/24 11:37:37;;;;;;;0.40;0.40;;;18.90;79.30;;;;;;4962954;28;20046;-77
2023/04/24 11:40:04;;;;;;;0.32;0.30;;;18.90;79.10;;;;;;4985576;28;20045;-76
2023/04/24 11:42:34;;;;;;;0.57;0.40;;;18.90;79.00;;;;;;4985032;28;20046;-76
2023/04/24 11:45:01;;;;;;;0.40;0.40;;;18.90;79.10;;;;;;4986781;28;20043;-76
2023/04/24 11:47:30;;;;;;;0.28;0.28;;;18.90;79.00;;;;;;4987262;28;20046;-77
2023/04/24 11:49:56;;;;;;;0.50;0.40;;;18.90;78.90;;;;;;4981934;28;20054;-76
2023/04/24 11:52:22;;;;;;;0.38;0.30;;;19.00;79.00;;;;;;4984336;28;20097;-77
2023/04/24 11:54:49;;;;;;;0.40;0.40;;;18.90;79.20;;;;;;4986111;28;20385;-77
2023/04/24 11:57:14;;;;;;;0.40;0.30;;;18.90;79.10;;;;;;4978503;28;20492;-77
2023/04/24 11:59:40;;;;;;;0.30;0.30;;;18.90;79.00;;;;;;4986192;28;20042;-77
2023/04/24 12:02:06;;;;;;;0.32;0.30;;;18.90;79.00;;;;;;4986195;28;20393;-77
2023/04/24 12:04:41;;;;;;;0.73;0.47;;;18.90;79.10;;;;;;4985270;28;20042;-76
2023/04/24 12:07:08;;;;;;;0.40;0.30;;;18.90;79.20;;;;;;4966217;28;20034;-76
2023/04/24 12:09:47;;;;;;;0.38;0.32;;;18.90;79.20;;;;;;4985528;28;20049;-77
2023/04/24 12:12:13;;;;;;;0.40;0.30;;;18.90;79.20;;;;;;4988377;28;20092;-77
2023/04/24 12:14:57;;;;;;;0.47;0.47;;;18.90;79.20;;;;;;4987956;28;20074;-77
2023/04/24 12:17:30;;;;;;;0.47;0.45;;;18.90;79.30;;;;;;4991915;28;20092;-77
2023/04/24 12:20:06;;;;;;;0.40;0.40;;;18.90;79.30;;;;;;4989790;28;20048;-76
2023/04/24 12:22:48;;;;;;;0.40;0.40;;;18.90;79.30;;;;;;4967976;28;20073;-77
2023/04/24 12:25:18;;;;;;;0.30;0.30;;;18.90;79.20;;;;;;4988593;28;20407;-77
2023/04/24 12:27:44;;;;;;;0.40;0.40;;;18.90;79.20;;;;;;5006960;28;20054;-77
2023/04/24 12:30:14;;;;;;;0.32;0.32;;;18.90;79.20;;;;;;4989385;28;20038;-77
2023/04/24 12:32:59;;;;;;;0.60;0.30;;;18.90;79.20;;;;;;4988522;28;20844;-77
2023/04/24 12:35:25;;;;;;;0.30;0.30;;;19.00;79.30;;;;;;4987344;28;20054;-77
2023/04/24 12:37:51;;;;;;;0.30;0.30;;;19.00;79.20;;;;;;4989813;28;20527;-77
2023/04/24 12:40:17;;;;;;;0.40;0.40;;;19.00;79.30;;;;;;4990037;28;20038;-77
2023/04/24 12:42:48;;;;;;;0.30;0.30;;;19.00;79.30;;;;;;4988942;28;20045;-77
2023/04/24 12:45:13;;;;;;;0.40;0.40;;;19.00;79.30;;;;;;4990964;28;20185;-77